sensor_id;sensor_type;location;lat;lon;timestamp;P1;durP1;ratioP1;P2;durP2;ratioP2
55784;SDS011;41709;52.536;5.688;2023-04-01T00:02:06;6.13;;;4.03;;
55784;SDS011;41709;52.536;5.688;2023-04-01T00:04:32;7.30;;;5.07;;
55784;SDS011;41709;52.536;5.688;2023-04-01T00:06:58;4.80;;;4.25;;
55784;SDS011;41709;52.536;5.688;2023-04-01T00:09:25;7.15;;;4.63;;
55784;SDS011;41709;52.536;5.688;2023-04-01T00:11:50;6.03;;;4.78;;
55784;SDS011;41709;52.536;5.688;2023-04-01T00:14:16;6.88;;;4.88;;
55784;SDS011;41709;52.536;5.688;2023-04-01T00:16:42;6.57;;;5.07;;
55784;SDS011;41709;52.536;5.688;2023-04-01T00:19:07;6.10;;;5.18;;
55784;SDS011;41709;52.536;5.688;2023-04-01T00:21:33;5.72;;;5.13;;
55784;SDS011;41709;52.536;5.688;2023-04-01T00:23:58;6.30;;;5.35;;
55784;SDS011;41709;52.536;5.688;2023-04-01T00:26:25;9.68;;;5.65;;
55784;SDS011;41709;52.536;5.688;2023-04-01T00:28:51;8.23;;;5.80;;
55784;SDS011;41709;52.536;5.688;2023-04-01T00:31:17;6.55;;;5.80;;
55784;SDS011;41709;52.536;5.688;2023-04-01T00:33:43;8.25;;;6.07;;
55784;SDS011;41709;52.536;5.688;2023-04-01T00:36:12;8.77;;;5.95;;
55784;SDS011;41709;52.536;5.688;2023-04-01T00:38:39;11.63;;;5.97;;
55784;SDS011;41709;52.536;5.688;2023-04-01T00:41:07;7.78;;;5.65;;
55784;SDS011;41709;52.536;5.688;2023-04-01T00:43:34;7.65;;;5.97;;
55784;SDS011;41709;52.536;5.688;2023-04-01T00:46:00;9.60;;;5.93;;
55784;SDS011;41709;52.536;5.688;2023-04-01T00:48:27;8.15;;;5.97;;
55784;SDS011;41709;52.536;5.688;2023-04-01T00:50:58;10.52;;;6.28;;
55784;SDS011;41709;52.536;5.688;2023-04-01T00:53:27;11.48;;;6.50;;
55784;SDS011;41709;52.536;5.688;2023-04-01T00:56:02;10.13;;;6.55;;
55784;SDS011;41709;52.536;5.688;2023-04-01T00:58:32;11.05;;;7.50;;
55784;SDS011;41709;52.536;5.688;2023-04-01T01:01:01;7.18;;;6.38;;
55784;SDS011;41709;52.536;5.688;2023-04-01T01:03:27;12.10;;;6.20;;
55784;SDS011;41709;52.536;5.688;2023-04-01T01:11:48;9.63;;;7.18;;
55784;SDS011;41709;52.536;5.688;2023-04-01T01:14:25;11.63;;;7.60;;
55784;SDS011;41709;52.536;5.688;2023-04-01T01:17:56;9.80;;;7.35;;
55784;SDS011;41709;52.536;5.688;2023-04-01T01:22:57;10.75;;;7.68;;
55784;SDS011;41709;52.536;5.688;2023-04-01T01:26:08;12.85;;;7.68;;
55784;SDS011;41709;52.536;5.688;2023-04-01T01:28:36;16.70;;;8.05;;
55784;SDS011;41709;52.536;5.688;2023-04-01T01:31:37;14.13;;;8.85;;
55784;SDS011;41709;52.536;5.688;2023-04-01T01:37:03;20.60;;;9.52;;
55784;SDS011;41709;52.536;5.688;2023-04-01T01:39:38;17.42;;;9.68;;
55784;SDS011;41709;52.536;5.688;2023-04-01T01:42:07;13.52;;;9.63;;
55784;SDS011;41709;52.536;5.688;2023-04-01T01:44:36;22.17;;;9.93;;
55784;SDS011;41709;52.536;5.688;2023-04-01T01:47:04;20.88;;;8.50;;
55784;SDS011;41709;52.536;5.688;2023-04-01T01:49:30;19.75;;;9.40;;
55784;SDS011;41709;52.536;5.688;2023-04-01T01:51:58;19.20;;;8.77;;
55784;SDS011;41709;52.536;5.688;2023-04-01T01:54:24;20.48;;;8.70;;
55784;SDS011;41709;52.536;5.688;2023-04-01T01:56:55;24.63;;;9.68;;
55784;SDS011;41709;52.536;5.688;2023-04-01T01:59:30;19.17;;;7.38;;
55784;SDS011;41709;52.536;5.688;2023-04-01T02:02:00;20.67;;;8.73;;
55784;SDS011;41709;52.536;5.688;2023-04-01T02:04:32;19.92;;;8.00;;
55784;SDS011;41709;52.536;5.688;2023-04-01T02:07:04;23.45;;;8.05;;
55784;SDS011;41709;52.536;5.688;2023-04-01T02:09:36;18.30;;;7.95;;
55784;SDS011;41709;52.536;5.688;2023-04-01T02:12:09;18.33;;;7.55;;
55784;SDS011;41709;52.536;5.688;2023-04-01T02:17:19;16.55;;;6.68;;
55784;SDS011;41709;52.536;5.688;2023-04-01T02:19:51;18.63;;;7.30;;
55784;SDS011;41709;52.536;5.688;2023-04-01T02:22:27;23.83;;;8.98;;
55784;SDS011;41709;52.536;5.688;2023-04-01T02:25:01;18.58;;;7.53;;
55784;SDS011;41709;52.536;5.688;2023-04-01T02:27:30;18.08;;;7.40;;
55784;SDS011;41709;52.536;5.688;2023-04-01T02:29:56;15.55;;;8.00;;
55784;SDS011;41709;52.536;5.688;2023-04-01T02:32:23;14.93;;;6.93;;
55784;SDS011;41709;52.536;5.688;2023-04-01T02:34:49;14.65;;;6.75;;
55784;SDS011;41709;52.536;5.688;2023-04-01T02:37:16;17.27;;;6.95;;
55784;SDS011;41709;52.536;5.688;2023-04-01T02:39:42;15.73;;;7.00;;
55784;SDS011;41709;52.536;5.688;2023-04-01T02:42:08;16.95;;;7.00;;
55784;SDS011;41709;52.536;5.688;2023-04-01T02:44:34;13.43;;;7.93;;
55784;SDS011;41709;52.536;5.688;2023-04-01T02:46:59;16.10;;;7.90;;
55784;SDS011;41709;52.536;5.688;2023-04-01T02:49:25;18.88;;;8.27;;
55784;SDS011;41709;52.536;5.688;2023-04-01T02:51:51;18.98;;;8.25;;
55784;SDS011;41709;52.536;5.688;2023-04-01T02:54:17;16.65;;;8.43;;
55784;SDS011;41709;52.536;5.688;2023-04-01T02:56:43;16.73;;;7.72;;
55784;SDS011;41709;52.536;5.688;2023-04-01T02:59:09;14.70;;;7.28;;
55784;SDS011;41709;52.536;5.688;2023-04-01T03:01:35;18.52;;;8.00;;
55784;SDS011;41709;52.536;5.688;2023-04-01T03:04:00;14.82;;;7.65;;
55784;SDS011;41709;52.536;5.688;2023-04-01T03:06:26;15.98;;;7.68;;
55784;SDS011;41709;52.536;5.688;2023-04-01T03:08:51;12.82;;;7.05;;
55784;SDS011;41709;52.536;5.688;2023-04-01T03:11:17;14.65;;;6.72;;
55784;SDS011;41709;52.536;5.688;2023-04-01T03:13:42;16.77;;;7.47;;
55784;SDS011;41709;52.536;5.688;2023-04-01T03:16:08;11.88;;;6.32;;
55784;SDS011;41709;52.536;5.688;2023-04-01T03:18:33;13.48;;;6.60;;
55784;SDS011;41709;52.536;5.688;2023-04-01T03:21:12;18.13;;;7.35;;
55784;SDS011;41709;52.536;5.688;2023-04-01T03:23:39;11.52;;;6.15;;
55784;SDS011;41709;52.536;5.688;2023-04-01T03:26:04;15.60;;;6.28;;
55784;SDS011;41709;52.536;5.688;2023-04-01T03:28:30;14.27;;;5.65;;
55784;SDS011;41709;52.536;5.688;2023-04-01T03:30:56;14.77;;;5.85;;
55784;SDS011;41709;52.536;5.688;2023-04-01T03:33:21;15.80;;;8.20;;
55784;SDS011;41709;52.536;5.688;2023-04-01T03:35:47;13.20;;;6.63;;
55784;SDS011;41709;52.536;5.688;2023-04-01T03:38:12;12.27;;;6.13;;
55784;SDS011;41709;52.536;5.688;2023-04-01T03:40:41;12.95;;;5.60;;
55784;SDS011;41709;52.536;5.688;2023-04-01T03:43:07;15.85;;;6.13;;
55784;SDS011;41709;52.536;5.688;2023-04-01T03:45:34;14.55;;;5.93;;
55784;SDS011;41709;52.536;5.688;2023-04-01T03:48:00;15.18;;;7.03;;
55784;SDS011;41709;52.536;5.688;2023-04-01T03:50:26;11.48;;;6.00;;
55784;SDS011;41709;52.536;5.688;2023-04-01T03:52:52;15.68;;;6.43;;
55784;SDS011;41709;52.536;5.688;2023-04-01T03:55:17;10.68;;;5.88;;
55784;SDS011;41709;52.536;5.688;2023-04-01T03:57:43;12.00;;;5.93;;
55784;SDS011;41709;52.536;5.688;2023-04-01T04:00:09;11.70;;;5.55;;
55784;SDS011;41709;52.536;5.688;2023-04-01T04:02:35;12.00;;;5.85;;
55784;SDS011;41709;52.536;5.688;2023-04-01T04:05:01;10.98;;;5.88;;
55784;SDS011;41709;52.536;5.688;2023-04-01T04:07:27;10.00;;;6.00;;
55784;SDS011;41709;52.536;5.688;2023-04-01T04:09:52;12.27;;;6.25;;
55784;SDS011;41709;52.536;5.688;2023-04-01T04:12:18;14.38;;;6.40;;
55784;SDS011;41709;52.536;5.688;2023-04-01T04:14:43;14.32;;;6.75;;
55784;SDS011;41709;52.536;5.688;2023-04-01T04:17:12;14.95;;;6.50;;
55784;SDS011;41709;52.536;5.688;2023-04-01T04:19:41;12.73;;;5.70;;
55784;SDS011;41709;52.536;5.688;2023-04-01T04:22:07;14.82;;;7.25;;
55784;SDS011;41709;52.536;5.688;2023-04-01T04:24:36;12.18;;;6.20;;
55784;SDS011;41709;52.536;5.688;2023-04-01T04:29:28;13.55;;;7.20;;
55784;SDS011;41709;52.536;5.688;2023-04-01T04:31:54;14.43;;;7.45;;
55784;SDS011;41709;52.536;5.688;2023-04-01T04:34:19;11.32;;;6.43;;
55784;SDS011;41709;52.536;5.688;2023-04-01T04:36:46;11.82;;;6.07;;
55784;SDS011;41709;52.536;5.688;2023-04-01T04:39:12;13.38;;;6.20;;
55784;SDS011;41709;52.536;5.688;2023-04-01T04:41:37;8.32;;;5.53;;
55784;SDS011;41709;52.536;5.688;2023-04-01T04:44:03;10.93;;;6.15;;
55784;SDS011;41709;52.536;5.688;2023-04-01T04:46:30;11.88;;;6.57;;
55784;SDS011;41709;52.536;5.688;2023-04-01T04:48:55;7.57;;;5.45;;
55784;SDS011;41709;52.536;5.688;2023-04-01T04:51:21;10.18;;;6.20;;
55784;SDS011;41709;52.536;5.688;2023-04-01T04:53:47;8.60;;;5.35;;
55784;SDS011;41709;52.536;5.688;2023-04-01T04:56:13;11.00;;;5.95;;
55784;SDS011;41709;52.536;5.688;2023-04-01T04:58:43;9.65;;;5.97;;
55784;SDS011;41709;52.536;5.688;2023-04-01T05:01:09;9.82;;;5.47;;
55784;SDS011;41709;52.536;5.688;2023-04-01T05:03:37;10.38;;;6.32;;
55784;SDS011;41709;52.536;5.688;2023-04-01T05:06:03;10.27;;;5.97;;
55784;SDS011;41709;52.536;5.688;2023-04-01T05:08:30;8.88;;;5.43;;
55784;SDS011;41709;52.536;5.688;2023-04-01T05:10:55;9.10;;;5.63;;
55784;SDS011;41709;52.536;5.688;2023-04-01T05:13:21;9.15;;;5.93;;
55784;SDS011;41709;52.536;5.688;2023-04-01T05:15:47;10.55;;;6.72;;
55784;SDS011;41709;52.536;5.688;2023-04-01T05:18:12;9.70;;;6.10;;
55784;SDS011;41709;52.536;5.688;2023-04-01T05:20:38;12.13;;;5.90;;
55784;SDS011;41709;52.536;5.688;2023-04-01T05:23:03;10.20;;;6.47;;
55784;SDS011;41709;52.536;5.688;2023-04-01T05:25:29;11.35;;;6.53;;
55784;SDS011;41709;52.536;5.688;2023-04-01T05:27:54;11.25;;;7.20;;
55784;SDS011;41709;52.536;5.688;2023-04-01T05:30:20;11.50;;;7.05;;
55784;SDS011;41709;52.536;5.688;2023-04-01T05:32:46;11.10;;;6.43;;
55784;SDS011;41709;52.536;5.688;2023-04-01T05:35:12;11.43;;;6.38;;
55784;SDS011;41709;52.536;5.688;2023-04-01T05:37:37;9.45;;;6.28;;
55784;SDS011;41709;52.536;5.688;2023-04-01T05:40:03;11.55;;;7.35;;
55784;SDS011;41709;52.536;5.688;2023-04-01T05:42:29;11.52;;;6.95;;
55784;SDS011;41709;52.536;5.688;2023-04-01T05:44:55;12.00;;;6.57;;
55784;SDS011;41709;52.536;5.688;2023-04-01T05:47:21;10.70;;;6.65;;
55784;SDS011;41709;52.536;5.688;2023-04-01T05:49:47;13.73;;;6.80;;
55784;SDS011;41709;52.536;5.688;2023-04-01T05:52:12;11.13;;;7.68;;
55784;SDS011;41709;52.536;5.688;2023-04-01T05:54:38;12.82;;;6.40;;
55784;SDS011;41709;52.536;5.688;2023-04-01T05:57:04;10.25;;;5.88;;
55784;SDS011;41709;52.536;5.688;2023-04-01T05:59:29;11.23;;;5.53;;
55784;SDS011;41709;52.536;5.688;2023-04-01T06:01:56;7.22;;;4.60;;
55784;SDS011;41709;52.536;5.688;2023-04-01T06:04:22;4.90;;;3.20;;
55784;SDS011;41709;52.536;5.688;2023-04-01T06:06:48;5.05;;;3.20;;
55784;SDS011;41709;52.536;5.688;2023-04-01T06:09:15;4.85;;;2.30;;
55784;SDS011;41709;52.536;5.688;2023-04-01T06:34:20;3.72;;;2.80;;
55784;SDS011;41709;52.536;5.688;2023-04-01T06:37:09;3.40;;;2.72;;
55784;SDS011;41709;52.536;5.688;2023-04-01T06:39:46;2.95;;;2.30;;
55784;SDS011;41709;52.536;5.688;2023-04-01T06:51:24;2.65;;;2.33;;
55784;SDS011;41709;52.536;5.688;2023-04-01T06:56:45;3.30;;;2.53;;
55784;SDS011;41709;52.536;5.688;2023-04-01T06:59:16;3.63;;;2.28;;
55784;SDS011;41709;52.536;5.688;2023-04-01T07:01:47;6.32;;;3.17;;
55784;SDS011;41709;52.536;5.688;2023-04-01T07:04:20;4.68;;;3.35;;
55784;SDS011;41709;52.536;5.688;2023-04-01T07:06:57;5.30;;;3.45;;
55784;SDS011;41709;52.536;5.688;2023-04-01T07:09:33;4.22;;;3.00;;
55784;SDS011;41709;52.536;5.688;2023-04-01T07:12:12;4.13;;;2.60;;
55784;SDS011;41709;52.536;5.688;2023-04-01T07:14:44;3.70;;;2.75;;
55784;SDS011;41709;52.536;5.688;2023-04-01T07:19:52;3.80;;;2.08;;
55784;SDS011;41709;52.536;5.688;2023-04-01T07:22:43;3.10;;;2.60;;
55784;SDS011;41709;52.536;5.688;2023-04-01T07:25:21;3.50;;;2.38;;
55784;SDS011;41709;52.536;5.688;2023-04-01T07:27:50;4.32;;;2.97;;
55784;SDS011;41709;52.536;5.688;2023-04-01T07:30:24;3.03;;;2.60;;
55784;SDS011;41709;52.536;5.688;2023-04-01T07:33:15;3.80;;;2.65;;
55784;SDS011;41709;52.536;5.688;2023-04-01T07:41:23;5.03;;;2.90;;
55784;SDS011;41709;52.536;5.688;2023-04-01T07:44:27;4.73;;;3.50;;
55784;SDS011;41709;52.536;5.688;2023-04-01T07:47:20;5.20;;;3.95;;
55784;SDS011;41709;52.536;5.688;2023-04-01T07:55:39;5.18;;;3.80;;
55784;SDS011;41709;52.536;5.688;2023-04-01T07:58:20;5.32;;;3.78;;
55784;SDS011;41709;52.536;5.688;2023-04-01T08:00:58;4.05;;;3.65;;
55784;SDS011;41709;52.536;5.688;2023-04-01T08:08:59;5.22;;;3.58;;
55784;SDS011;41709;52.536;5.688;2023-04-01T08:11:37;4.65;;;3.70;;
55784;SDS011;41709;52.536;5.688;2023-04-01T08:16:37;5.15;;;3.88;;
55784;SDS011;41709;52.536;5.688;2023-04-01T08:22:03;3.65;;;2.83;;
55784;SDS011;41709;52.536;5.688;2023-04-01T08:24:38;2.72;;;2.53;;
55784;SDS011;41709;52.536;5.688;2023-04-01T08:27:12;3.60;;;3.10;;
55784;SDS011;41709;52.536;5.688;2023-04-01T08:30:04;3.10;;;2.80;;
55784;SDS011;41709;52.536;5.688;2023-04-01T08:32:33;3.10;;;2.80;;
55784;SDS011;41709;52.536;5.688;2023-04-01T08:38:07;3.40;;;2.72;;
55784;SDS011;41709;52.536;5.688;2023-04-01T08:46:25;3.92;;;2.53;;
55784;SDS011;41709;52.536;5.688;2023-04-01T08:52:04;5.43;;;3.20;;
55784;SDS011;41709;52.536;5.688;2023-04-01T09:13:36;3.87;;;2.20;;
55784;SDS011;41709;52.536;5.688;2023-04-01T09:18:54;3.25;;;2.70;;
55784;SDS011;41709;52.536;5.688;2023-04-01T09:21:35;2.83;;;2.40;;
55784;SDS011;41709;52.536;5.688;2023-04-01T09:24:23;2.65;;;2.22;;
55784;SDS011;41709;52.536;5.688;2023-04-01T09:27:04;3.40;;;2.78;;
55784;SDS011;41709;52.536;5.688;2023-04-01T09:38:19;3.00;;;2.70;;
55784;SDS011;41709;52.536;5.688;2023-04-01T09:49:43;4.88;;;3.88;;
55784;SDS011;41709;52.536;5.688;2023-04-01T09:52:31;3.10;;;2.80;;
55784;SDS011;41709;52.536;5.688;2023-04-01T10:04:04;8.25;;;4.80;;
55784;SDS011;41709;52.536;5.688;2023-04-01T10:12:57;5.20;;;4.13;;
55784;SDS011;41709;52.536;5.688;2023-04-01T10:51:12;8.10;;;6.10;;
55784;SDS011;41709;52.536;5.688;2023-04-01T10:53:52;6.85;;;6.15;;
55784;SDS011;41709;52.536;5.688;2023-04-01T10:56:40;7.85;;;6.70;;
55784;SDS011;41709;52.536;5.688;2023-04-01T10:59:28;8.05;;;6.30;;
55784;SDS011;41709;52.536;5.688;2023-04-01T11:02:55;8.18;;;6.55;;
55784;SDS011;41709;52.536;5.688;2023-04-01T11:08:11;8.70;;;6.60;;
55784;SDS011;41709;52.536;5.688;2023-04-01T11:22:09;7.93;;;6.80;;
55784;SDS011;41709;52.536;5.688;2023-04-01T11:38:31;8.80;;;7.05;;
55784;SDS011;41709;52.536;5.688;2023-04-01T11:44:21;10.13;;;8.55;;
55784;SDS011;41709;52.536;5.688;2023-04-01T11:59:41;10.82;;;8.57;;
55784;SDS011;41709;52.536;5.688;2023-04-01T12:01:58;11.73;;;8.75;;
55784;SDS011;41709;52.536;5.688;2023-04-01T12:04:38;12.02;;;8.85;;
55784;SDS011;41709;52.536;5.688;2023-04-01T12:07:19;9.75;;;8.10;;
55784;SDS011;41709;52.536;5.688;2023-04-01T12:10:12;10.32;;;7.55;;
55784;SDS011;41709;52.536;5.688;2023-04-01T12:13:03;9.60;;;8.32;;
55784;SDS011;41709;52.536;5.688;2023-04-01T12:16:07;8.35;;;6.97;;
55784;SDS011;41709;52.536;5.688;2023-04-01T12:19:08;8.98;;;7.68;;
55784;SDS011;41709;52.536;5.688;2023-04-01T12:21:48;6.97;;;6.20;;
55784;SDS011;41709;52.536;5.688;2023-04-01T12:24:47;5.22;;;4.55;;
55784;SDS011;41709;52.536;5.688;2023-04-01T12:30:21;4.82;;;4.07;;
55784;SDS011;41709;52.536;5.688;2023-04-01T12:35:39;4.57;;;3.85;;
55784;SDS011;41709;52.536;5.688;2023-04-01T12:38:15;4.78;;;4.00;;
55784;SDS011;41709;52.536;5.688;2023-04-01T12:41:07;4.82;;;4.32;;
55784;SDS011;41709;52.536;5.688;2023-04-01T12:43:45;5.00;;;4.03;;
55784;SDS011;41709;52.536;5.688;2023-04-01T12:49:20;4.75;;;4.32;;
55784;SDS011;41709;52.536;5.688;2023-04-01T12:54:41;5.38;;;4.43;;
55784;SDS011;41709;52.536;5.688;2023-04-01T13:14:14;4.68;;;4.18;;
55784;SDS011;41709;52.536;5.688;2023-04-01T13:16:54;4.80;;;4.38;;
55784;SDS011;41709;52.536;5.688;2023-04-01T13:28:26;3.80;;;3.38;;
55784;SDS011;41709;52.536;5.688;2023-04-01T13:31:00;5.25;;;3.30;;
55784;SDS011;41709;52.536;5.688;2023-04-01T13:36:24;4.65;;;3.88;;
55784;SDS011;41709;52.536;5.688;2023-04-01T13:44:34;4.90;;;2.90;;
55784;SDS011;41709;52.536;5.688;2023-04-01T13:53:11;5.28;;;3.05;;
55784;SDS011;41709;52.536;5.688;2023-04-01T13:58:43;3.20;;;2.90;;
55784;SDS011;41709;52.536;5.688;2023-04-01T14:01:32;3.57;;;3.13;;
55784;SDS011;41709;52.536;5.688;2023-04-01T14:12:06;3.60;;;3.30;;
55784;SDS011;41709;52.536;5.688;2023-04-01T14:17:54;6.20;;;3.65;;
55784;SDS011;41709;52.536;5.688;2023-04-01T14:26:21;4.10;;;3.17;;
55784;SDS011;41709;52.536;5.688;2023-04-01T14:34:32;4.38;;;2.67;;
55784;SDS011;41709;52.536;5.688;2023-04-01T14:40:16;3.17;;;2.88;;
55784;SDS011;41709;52.536;5.688;2023-04-01T14:54:13;4.03;;;3.33;;
55784;SDS011;41709;52.536;5.688;2023-04-01T14:56:51;3.63;;;3.15;;
55784;SDS011;41709;52.536;5.688;2023-04-01T14:59:39;8.60;;;3.28;;
55784;SDS011;41709;52.536;5.688;2023-04-01T15:10:09;3.70;;;3.13;;
55784;SDS011;41709;52.536;5.688;2023-04-01T15:13:18;6.15;;;4.35;;
55784;SDS011;41709;52.536;5.688;2023-04-01T15:24:00;2.83;;;2.53;;
55784;SDS011;41709;52.536;5.688;2023-04-01T15:26:56;2.63;;;2.42;;
55784;SDS011;41709;52.536;5.688;2023-04-01T15:29:38;3.78;;;2.40;;
55784;SDS011;41709;52.536;5.688;2023-04-01T15:32:19;2.50;;;2.30;;
55784;SDS011;41709;52.536;5.688;2023-04-01T15:35:03;2.47;;;2.28;;
55784;SDS011;41709;52.536;5.688;2023-04-01T15:40:45;2.13;;;2.03;;
55784;SDS011;41709;52.536;5.688;2023-04-01T15:43:46;2.70;;;2.50;;
55784;SDS011;41709;52.536;5.688;2023-04-01T15:52:09;1.60;;;1.50;;
55784;SDS011;41709;52.536;5.688;2023-04-01T16:00:30;2.80;;;1.38;;
55784;SDS011;41709;52.536;5.688;2023-04-01T16:06:13;1.80;;;1.70;;
55784;SDS011;41709;52.536;5.688;2023-04-01T16:09:06;1.40;;;1.30;;
55784;SDS011;41709;52.536;5.688;2023-04-01T16:12:04;1.40;;;1.30;;
55784;SDS011;41709;52.536;5.688;2023-04-01T16:22:35;1.83;;;0.80;;
55784;SDS011;41709;52.536;5.688;2023-04-01T16:28:24;1.05;;;0.95;;
55784;SDS011;41709;52.536;5.688;2023-04-01T16:36:54;1.17;;;1.08;;
55784;SDS011;41709;52.536;5.688;2023-04-01T16:42:24;1.63;;;1.23;;
55784;SDS011;41709;52.536;5.688;2023-04-01T16:45:01;1.95;;;1.25;;
55784;SDS011;41709;52.536;5.688;2023-04-01T16:58:27;1.55;;;1.45;;
55784;SDS011;41709;52.536;5.688;2023-04-01T17:01:01;1.70;;;1.60;;
55784;SDS011;41709;52.536;5.688;2023-04-01T17:06:52;1.95;;;1.85;;
55784;SDS011;41709;52.536;5.688;2023-04-01T17:09:13;2.58;;;2.38;;
55784;SDS011;41709;52.536;5.688;2023-04-01T17:14:41;2.78;;;2.58;;
55784;SDS011;41709;52.536;5.688;2023-04-01T17:18:13;2.97;;;2.63;;
55784;SDS011;41709;52.536;5.688;2023-04-01T17:20:42;2.85;;;2.50;;
55784;SDS011;41709;52.536;5.688;2023-04-01T17:23:19;4.13;;;2.83;;
55784;SDS011;41709;52.536;5.688;2023-04-01T17:28:52;3.20;;;2.90;;
55784;SDS011;41709;52.536;5.688;2023-04-01T17:31:42;2.85;;;2.65;;
55784;SDS011;41709;52.536;5.688;2023-04-01T17:34:46;2.70;;;2.50;;
55784;SDS011;41709;52.536;5.688;2023-04-01T17:43:06;4.80;;;3.17;;
55784;SDS011;41709;52.536;5.688;2023-04-01T17:45:49;3.03;;;2.83;;
55784;SDS011;41709;52.536;5.688;2023-04-01T17:53:55;3.65;;;3.35;;
55784;SDS011;41709;52.536;5.688;2023-04-01T18:02:18;5.50;;;4.18;;
55784;SDS011;41709;52.536;5.688;2023-04-01T18:05:10;4.20;;;3.80;;
55784;SDS011;41709;52.536;5.688;2023-04-01T18:16:11;5.95;;;3.92;;
55784;SDS011;41709;52.536;5.688;2023-04-01T18:19:01;7.75;;;4.40;;
55784;SDS011;41709;52.536;5.688;2023-04-01T18:24:28;6.43;;;4.60;;
55784;SDS011;41709;52.536;5.688;2023-04-01T18:27:02;4.82;;;4.30;;
55784;SDS011;41709;52.536;5.688;2023-04-01T18:29:34;6.13;;;4.45;;
55784;SDS011;41709;52.536;5.688;2023-04-01T18:34:42;7.35;;;4.55;;
55784;SDS011;41709;52.536;5.688;2023-04-01T18:37:59;6.63;;;4.80;;
55784;SDS011;41709;52.536;5.688;2023-04-01T18:40:35;6.95;;;4.30;;
55784;SDS011;41709;52.536;5.688;2023-04-01T18:43:10;8.10;;;5.15;;
55784;SDS011;41709;52.536;5.688;2023-04-01T18:51:17;5.63;;;4.05;;
55784;SDS011;41709;52.536;5.688;2023-04-01T18:53:50;5.03;;;4.32;;
55784;SDS011;41709;52.536;5.688;2023-04-01T19:09:50;7.40;;;4.80;;
55784;SDS011;41709;52.536;5.688;2023-04-01T19:20:41;8.73;;;4.50;;
55784;SDS011;41709;52.536;5.688;2023-04-01T19:26:09;4.65;;;3.97;;
55784;SDS011;41709;52.536;5.688;2023-04-01T19:37:19;6.75;;;4.60;;
55784;SDS011;41709;52.536;5.688;2023-04-01T19:40:06;5.68;;;4.50;;
55784;SDS011;41709;52.536;5.688;2023-04-01T19:51:02;5.50;;;4.40;;
55784;SDS011;41709;52.536;5.688;2023-04-01T19:56:22;7.38;;;5.20;;
55784;SDS011;41709;52.536;5.688;2023-04-01T19:58:54;6.60;;;4.97;;
55784;SDS011;41709;52.536;5.688;2023-04-01T20:04:03;6.18;;;4.95;;
55784;SDS011;41709;52.536;5.688;2023-04-01T20:06:44;9.15;;;5.20;;
55784;SDS011;41709;52.536;5.688;2023-04-01T20:14:49;6.75;;;5.18;;
55784;SDS011;41709;52.536;5.688;2023-04-01T20:17:25;8.50;;;5.32;;
55784;SDS011;41709;52.536;5.688;2023-04-01T20:19:58;7.18;;;5.22;;
55784;SDS011;41709;52.536;5.688;2023-04-01T20:27:41;7.10;;;5.03;;
55784;SDS011;41709;52.536;5.688;2023-04-01T20:44:35;7.35;;;5.53;;
55784;SDS011;41709;52.536;5.688;2023-04-01T20:49:53;8.27;;;6.40;;
55784;SDS011;41709;52.536;5.688;2023-04-01T20:55:26;8.52;;;5.57;;
55784;SDS011;41709;52.536;5.688;2023-04-01T21:15:37;7.95;;;5.47;;
55784;SDS011;41709;52.536;5.688;2023-04-01T21:26:19;8.35;;;6.07;;
55784;SDS011;41709;52.536;5.688;2023-04-01T21:34:37;9.38;;;6.53;;
55784;SDS011;41709;52.536;5.688;2023-04-01T21:37:18;10.73;;;6.10;;
55784;SDS011;41709;52.536;5.688;2023-04-01T21:40:04;10.95;;;7.03;;
55784;SDS011;41709;52.536;5.688;2023-04-01T22:05:13;18.38;;;7.07;;
55784;SDS011;41709;52.536;5.688;2023-04-01T22:07:47;12.30;;;7.22;;
55784;SDS011;41709;52.536;5.688;2023-04-01T22:10:32;11.45;;;7.60;;
55784;SDS011;41709;52.536;5.688;2023-04-01T22:13:10;10.88;;;7.70;;
55784;SDS011;41709;52.536;5.688;2023-04-01T22:16:04;13.10;;;7.75;;
55784;SDS011;41709;52.536;5.688;2023-04-01T22:18:58;17.02;;;7.65;;
55784;SDS011;41709;52.536;5.688;2023-04-01T22:24:20;12.65;;;7.68;;
55784;SDS011;41709;52.536;5.688;2023-04-01T22:32:15;14.05;;;7.68;;
55784;SDS011;41709;52.536;5.688;2023-04-01T22:53:25;10.65;;;7.18;;
55784;SDS011;41709;52.536;5.688;2023-04-01T22:55:53;14.32;;;8.48;;
55784;SDS011;41709;52.536;5.688;2023-04-01T23:00:56;13.65;;;7.47;;
55784;SDS011;41709;52.536;5.688;2023-04-01T23:03:33;10.50;;;7.93;;
55784;SDS011;41709;52.536;5.688;2023-04-01T23:06:04;14.90;;;7.82;;
55784;SDS011;41709;52.536;5.688;2023-04-01T23:11:42;13.93;;;8.18;;
55784;SDS011;41709;52.536;5.688;2023-04-01T23:16:58;13.23;;;8.20;;
55784;SDS011;41709;52.536;5.688;2023-04-01T23:19:29;11.57;;;7.30;;
55784;SDS011;41709;52.536;5.688;2023-04-01T23:33:11;9.95;;;6.63;;
55784;SDS011;41709;52.536;5.688;2023-04-01T23:35:51;12.40;;;7.18;;
55784;SDS011;41709;52.536;5.688;2023-04-01T23:38:20;10.68;;;6.55;;
55784;SDS011;41709;52.536;5.688;2023-04-01T23:40:51;13.60;;;7.32;;
55784;SDS011;41709;52.536;5.688;2023-04-01T23:43:24;11.70;;;7.30;;
55784;SDS011;41709;52.536;5.688;2023-04-01T23:45:52;13.82;;;6.82;;
55784;SDS011;41709;52.536;5.688;2023-04-01T23:48:20;13.27;;;7.50;;
55784;SDS011;41709;52.536;5.688;2023-04-01T23:50:52;12.27;;;7.28;;
55784;SDS011;41709;52.536;5.688;2023-04-01T23:53:23;10.55;;;6.78;;
55784;SDS011;41709;52.536;5.688;2023-04-01T23:55:51;11.20;;;6.68;;
